sensor_id;sensor_type;location;lat;lon;timestamp;temperature;humidity
20891;DHT22;10605;52.968;8.844;2023-02-15T04:06:34;-0.40;99.90
20891;DHT22;10605;52.968;8.844;2023-02-15T04:09:00;-0.50;99.90
20891;DHT22;10605;52.968;8.844;2023-02-15T04:11:58;-0.50;99.90
20891;DHT22;10605;52.968;8.844;2023-02-15T04:14:23;-0.50;99.90
20891;DHT22;10605;52.968;8.844;2023-02-15T04:17:08;-0.50;99.90
20891;DHT22;10605;52.968;8.844;2023-02-15T04:19:35;-0.60;99.90
20891;DHT22;10605;52.968;8.844;2023-02-15T04:22:19;-0.70;99.90
20891;DHT22;10605;52.968;8.844;2023-02-15T04:25:03;-0.60;99.90
20891;DHT22;10605;52.968;8.844;2023-02-15T04:27:43;-0.70;99.90
20891;DHT22;10605;52.968;8.844;2023-02-15T04:30:11;-0.60;99.90
20891;DHT22;10605;52.968;8.844;2023-02-15T04:32:39;-0.60;99.90
20891;DHT22;10605;52.968;8.844;2023-02-15T04:35:06;-0.70;99.90
20891;DHT22;10605;52.968;8.844;2023-02-15T04:37:32;-0.70;99.90
20891;DHT22;10605;52.968;8.844;2023-02-15T04:39:59;-0.60;99.90
20891;DHT22;10605;52.968;8.844;2023-02-15T04:42:25;-0.80;99.90
20891;DHT22;10605;52.968;8.844;2023-02-15T04:44:51;-0.90;99.90
20891;DHT22;10605;52.968;8.844;2023-02-15T04:47:17;-0.80;99.90
20891;DHT22;10605;52.968;8.844;2023-02-15T04:49:43;-1.00;99.90
20891;DHT22;10605;52.968;8.844;2023-02-15T04:52:09;-1.20;99.90
20891;DHT22;10605;52.968;8.844;2023-02-15T04:54:35;-1.10;99.90
20891;DHT22;10605;52.968;8.844;2023-02-15T04:57:01;-1.10;99.90
20891;DHT22;10605;52.968;8.844;2023-02-15T04:59:27;-1.20;99.90
20891;DHT22;10605;52.968;8.844;2023-02-15T05:01:52;-1.20;99.90
20891;DHT22;10605;52.968;8.844;2023-02-15T05:04:18;-1.30;99.90
20891;DHT22;10605;52.968;8.844;2023-02-15T05:06:44;-1.30;99.90
20891;DHT22;10605;52.968;8.844;2023-02-15T05:09:11;-1.30;99.90
20891;DHT22;10605;52.968;8.844;2023-02-15T05:11:37;-1.40;99.90
20891;DHT22;10605;52.968;8.844;2023-02-15T05:14:03;-1.30;99.90
20891;DHT22;10605;52.968;8.844;2023-02-15T05:16:29;-1.40;99.90
20891;DHT22;10605;52.968;8.844;2023-02-15T05:18:54;-1.40;99.90
20891;DHT22;10605;52.968;8.844;2023-02-15T05:21:20;-1.30;99.90
20891;DHT22;10605;52.968;8.844;2023-02-15T05:23:46;-1.30;99.90
20891;DHT22;10605;52.968;8.844;2023-02-15T05:26:15;-1.30;99.90
20891;DHT22;10605;52.968;8.844;2023-02-15T05:29:00;-1.40;99.90
20891;DHT22;10605;52.968;8.844;2023-02-15T05:31:26;-1.50;99.90
20891;DHT22;10605;52.968;8.844;2023-02-15T05:33:52;-1.50;99.90
20891;DHT22;10605;52.968;8.844;2023-02-15T05:36:20;-1.40;99.90
20891;DHT22;10605;52.968;8.844;2023-02-15T05:38:46;-1.40;99.90
20891;DHT22;10605;52.968;8.844;2023-02-15T05:41:14;-1.50;99.90
20891;DHT22;10605;52.968;8.844;2023-02-15T05:43:42;-1.30;99.90
20891;DHT22;10605;52.968;8.844;2023-02-15T05:46:14;-1.30;99.90
20891;DHT22;10605;52.968;8.844;2023-02-15T05:48:40;-1.20;99.90
20891;DHT22;10605;52.968;8.844;2023-02-15T05:51:13;-1.40;99.90
20891;DHT22;10605;52.968;8.844;2023-02-15T05:53:40;-1.40;99.90
20891;DHT22;10605;52.968;8.844;2023-02-15T05:56:08;-1.40;99.90
20891;DHT22;10605;52.968;8.844;2023-02-15T05:58:39;-1.50;99.90
20891;DHT22;10605;52.968;8.844;2023-02-15T06:03:34;-1.50;99.90
20891;DHT22;10605;52.968;8.844;2023-02-15T06:06:03;-1.60;99.90
20891;DHT22;10605;52.968;8.844;2023-02-15T06:08:32;-1.80;99.90
20891;DHT22;10605;52.968;8.844;2023-02-15T06:11:00;-1.80;99.90
20891;DHT22;10605;52.968;8.844;2023-02-15T06:13:26;-1.90;99.90
20891;DHT22;10605;52.968;8.844;2023-02-15T06:15:55;-1.80;99.90
20891;DHT22;10605;52.968;8.844;2023-02-15T06:18:21;-1.80;99.90
20891;DHT22;10605;52.968;8.844;2023-02-15T06:20:49;-1.80;99.90
20891;DHT22;10605;52.968;8.844;2023-02-15T06:23:15;-1.70;99.90
20891;DHT22;10605;52.968;8.844;2023-02-15T06:25:45;-1.70;99.90
20891;DHT22;10605;52.968;8.844;2023-02-15T06:28:11;-1.70;99.90
20891;DHT22;10605;52.968;8.844;2023-02-15T06:30:37;-1.70;99.90
20891;DHT22;10605;52.968;8.844;2023-02-15T06:33:03;-1.80;99.90
20891;DHT22;10605;52.968;8.844;2023-02-15T06:35:28;-1.80;99.90
20891;DHT22;10605;52.968;8.844;2023-02-15T06:37:54;-1.90;99.90
20891;DHT22;10605;52.968;8.844;2023-02-15T06:40:23;-1.80;99.90
20891;DHT22;10605;52.968;8.844;2023-02-15T06:42:48;-1.80;99.90
20891;DHT22;10605;52.968;8.844;2023-02-15T06:45:14;-1.90;99.90
20891;DHT22;10605;52.968;8.844;2023-02-15T06:47:43;-2.00;99.90
20891;DHT22;10605;52.968;8.844;2023-02-15T06:50:09;-2.10;99.90
20891;DHT22;10605;52.968;8.844;2023-02-15T06:52:35;-2.00;99.90
20891;DHT22;10605;52.968;8.844;2023-02-15T06:55:00;-2.00;99.90
20891;DHT22;10605;52.968;8.844;2023-02-15T06:57:29;-1.80;99.90
20891;DHT22;10605;52.968;8.844;2023-02-15T06:59:55;-1.70;99.90
20891;DHT22;10605;52.968;8.844;2023-02-15T07:02:23;-1.70;99.90
20891;DHT22;10605;52.968;8.844;2023-02-15T07:04:49;-1.70;99.90
20891;DHT22;10605;52.968;8.844;2023-02-15T07:07:15;-1.50;99.90
20891;DHT22;10605;52.968;8.844;2023-02-15T07:09:41;-1.40;99.90
20891;DHT22;10605;52.968;8.844;2023-02-15T07:12:06;-1.10;99.90
20891;DHT22;10605;52.968;8.844;2023-02-15T07:14:51;-1.00;99.90
20891;DHT22;10605;52.968;8.844;2023-02-15T07:17:19;-0.80;99.90
20891;DHT22;10605;52.968;8.844;2023-02-15T07:19:44;-0.70;99.90
20891;DHT22;10605;52.968;8.844;2023-02-15T07:22:10;-0.40;99.90
20891;DHT22;10605;52.968;8.844;2023-02-15T07:24:36;-0.20;99.90
20891;DHT22;10605;52.968;8.844;2023-02-15T07:27:05;-0.20;99.90
20891;DHT22;10605;52.968;8.844;2023-02-15T07:29:32;0.10;99.90
20891;DHT22;10605;52.968;8.844;2023-02-15T07:31:59;0.00;99.90
20891;DHT22;10605;52.968;8.844;2023-02-15T07:34:26;0.10;99.90
20891;DHT22;10605;52.968;8.844;2023-02-15T07:36:52;0.20;99.90
20891;DHT22;10605;52.968;8.844;2023-02-15T07:39:19;0.50;99.90
20891;DHT22;10605;52.968;8.844;2023-02-15T07:41:45;0.90;99.90
20891;DHT22;10605;52.968;8.844;2023-02-15T07:44:14;0.80;99.90
20891;DHT22;10605;52.968;8.844;2023-02-15T07:46:41;1.40;99.90
20891;DHT22;10605;52.968;8.844;2023-02-15T07:49:09;1.40;99.90
20891;DHT22;10605;52.968;8.844;2023-02-15T07:51:35;1.70;99.90
20891;DHT22;10605;52.968;8.844;2023-02-15T07:54:01;1.60;99.90
20891;DHT22;10605;52.968;8.844;2023-02-15T07:56:27;1.80;99.90
20891;DHT22;10605;52.968;8.844;2023-02-15T07:58:54;1.60;99.90
20891;DHT22;10605;52.968;8.844;2023-02-15T08:01:33;1.50;99.90
20891;DHT22;10605;52.968;8.844;2023-02-15T08:04:01;2.00;99.90
20891;DHT22;10605;52.968;8.844;2023-02-15T08:06:29;2.50;99.90
20891;DHT22;10605;52.968;8.844;2023-02-15T08:08:57;2.80;99.90
20891;DHT22;10605;52.968;8.844;2023-02-15T08:11:27;3.00;99.90
20891;DHT22;10605;52.968;8.844;2023-02-15T08:14:08;3.30;99.90
20891;DHT22;10605;52.968;8.844;2023-02-15T08:16:39;3.70;99.90
20891;DHT22;10605;52.968;8.844;2023-02-15T08:19:08;3.80;99.90
20891;DHT22;10605;52.968;8.844;2023-02-15T08:21:38;3.80;99.90
20891;DHT22;10605;52.968;8.844;2023-02-15T08:24:16;4.10;99.90
20891;DHT22;10605;52.968;8.844;2023-02-15T08:26:43;4.40;99.90
20891;DHT22;10605;52.968;8.844;2023-02-15T08:29:10;4.50;99.90
20891;DHT22;10605;52.968;8.844;2023-02-15T08:31:36;4.50;99.90
20891;DHT22;10605;52.968;8.844;2023-02-15T08:34:03;4.60;99.90
20891;DHT22;10605;52.968;8.844;2023-02-15T08:36:30;4.70;99.90
20891;DHT22;10605;52.968;8.844;2023-02-15T08:39:04;5.00;99.90
20891;DHT22;10605;52.968;8.844;2023-02-15T08:41:35;5.10;99.90
20891;DHT22;10605;52.968;8.844;2023-02-15T08:44:04;5.30;99.90
20891;DHT22;10605;52.968;8.844;2023-02-15T08:46:35;5.60;99.90
20891;DHT22;10605;52.968;8.844;2023-02-15T08:49:03;5.80;99.90
20891;DHT22;10605;52.968;8.844;2023-02-15T08:51:34;5.90;99.90
20891;DHT22;10605;52.968;8.844;2023-02-15T08:54:09;5.80;99.90
20891;DHT22;10605;52.968;8.844;2023-02-15T08:56:39;5.80;99.90
20891;DHT22;10605;52.968;8.844;2023-02-15T08:59:06;6.20;99.90
20891;DHT22;10605;52.968;8.844;2023-02-15T09:01:34;6.40;99.90
20891;DHT22;10605;52.968;8.844;2023-02-15T09:04:05;6.20;99.90
20891;DHT22;10605;52.968;8.844;2023-02-15T09:06:32;6.40;99.90
20891;DHT22;10605;52.968;8.844;2023-02-15T09:08:58;6.60;99.90
20891;DHT22;10605;52.968;8.844;2023-02-15T09:11:26;6.50;99.90
20891;DHT22;10605;52.968;8.844;2023-02-15T09:14:06;6.60;99.90
20891;DHT22;10605;52.968;8.844;2023-02-15T09:16:34;6.70;99.90
20891;DHT22;10605;52.968;8.844;2023-02-15T09:19:00;7.00;99.90
20891;DHT22;10605;52.968;8.844;2023-02-15T09:21:36;7.20;99.90
20891;DHT22;10605;52.968;8.844;2023-02-15T09:24:43;7.30;99.90
20891;DHT22;10605;52.968;8.844;2023-02-15T09:27:24;7.30;99.90
20891;DHT22;10605;52.968;8.844;2023-02-15T09:30:05;7.20;99.90
20891;DHT22;10605;52.968;8.844;2023-02-15T09:33:02;7.40;99.90
20891;DHT22;10605;52.968;8.844;2023-02-15T09:35:54;7.80;99.90
20891;DHT22;10605;52.968;8.844;2023-02-15T09:38:25;8.00;99.90
20891;DHT22;10605;52.968;8.844;2023-02-15T09:41:13;8.20;99.90
20891;DHT22;10605;52.968;8.844;2023-02-15T10:01:13;9.90;99.90
20891;DHT22;10605;52.968;8.844;2023-02-15T10:04:07;10.00;99.90
20891;DHT22;10605;52.968;8.844;2023-02-15T10:15:21;11.20;99.90
20891;DHT22;10605;52.968;8.844;2023-02-15T10:23:49;11.80;99.90
20891;DHT22;10605;52.968;8.844;2023-02-15T10:28:51;11.60;99.90
20891;DHT22;10605;52.968;8.844;2023-02-15T10:31:28;12.00;99.90
20891;DHT22;10605;52.968;8.844;2023-02-15T10:34:10;12.40;99.90
20891;DHT22;10605;52.968;8.844;2023-02-15T10:49:41;14.00;99.90
20891;DHT22;10605;52.968;8.844;2023-02-15T10:52:12;14.00;99.90
20891;DHT22;10605;52.968;8.844;2023-02-15T11:03:56;14.30;99.90
20891;DHT22;10605;52.968;8.844;2023-02-15T11:10:49;14.30;99.90
20891;DHT22;10605;52.968;8.844;2023-02-15T11:13:22;14.90;99.90
20891;DHT22;10605;52.968;8.844;2023-02-15T11:16:54;14.40;99.90
20891;DHT22;10605;52.968;8.844;2023-02-15T11:19:47;13.70;99.90
20891;DHT22;10605;52.968;8.844;2023-02-15T11:22:49;13.90;99.90
20891;DHT22;10605;52.968;8.844;2023-02-15T11:26:03;15.00;99.90
20891;DHT22;10605;52.968;8.844;2023-02-15T11:28:55;15.30;99.90
20891;DHT22;10605;52.968;8.844;2023-02-15T11:31:47;15.30;99.90
20891;DHT22;10605;52.968;8.844;2023-02-15T11:40:03;15.30;99.90
20891;DHT22;10605;52.968;8.844;2023-02-15T11:42:41;15.20;99.90
20891;DHT22;10605;52.968;8.844;2023-02-15T11:48:40;15.10;99.90
20891;DHT22;10605;52.968;8.844;2023-02-15T11:51:11;15.60;99.90
20891;DHT22;10605;52.968;8.844;2023-02-15T11:54:17;15.70;99.90
20891;DHT22;10605;52.968;8.844;2023-02-15T12:17:02;15.80;99.90
20891;DHT22;10605;52.968;8.844;2023-02-15T12:22:59;16.30;99.90
20891;DHT22;10605;52.968;8.844;2023-02-15T12:25:56;16.40;99.90
20891;DHT22;10605;52.968;8.844;2023-02-15T12:28:42;16.20;99.90
20891;DHT22;10605;52.968;8.844;2023-02-15T12:33:47;14.50;99.90
20891;DHT22;10605;52.968;8.844;2023-02-15T12:36:30;14.30;99.90
20891;DHT22;10605;52.968;8.844;2023-02-15T12:41:43;14.50;99.90
20891;DHT22;10605;52.968;8.844;2023-02-15T12:46:35;14.70;99.90
20891;DHT22;10605;52.968;8.844;2023-02-15T12:49:18;15.00;99.90
20891;DHT22;10605;52.968;8.844;2023-02-15T12:51:49;14.90;99.90
20891;DHT22;10605;52.968;8.844;2023-02-15T12:57:33;14.10;99.90
20891;DHT22;10605;52.968;8.844;2023-02-15T13:00:29;13.60;99.90
20891;DHT22;10605;52.968;8.844;2023-02-15T13:02:55;13.30;99.90
20891;DHT22;10605;52.968;8.844;2023-02-15T13:07:56;12.40;99.90
20891;DHT22;10605;52.968;8.844;2023-02-15T13:10:30;11.90;99.90
20891;DHT22;10605;52.968;8.844;2023-02-15T13:12:57;11.90;99.90
20891;DHT22;10605;52.968;8.844;2023-02-15T13:15:36;11.80;99.90
20891;DHT22;10605;52.968;8.844;2023-02-15T13:18:05;11.70;99.90
20891;DHT22;10605;52.968;8.844;2023-02-15T13:20:32;11.60;99.90
20891;DHT22;10605;52.968;8.844;2023-02-15T13:23:06;11.50;99.90
20891;DHT22;10605;52.968;8.844;2023-02-15T13:25:44;11.50;99.90
20891;DHT22;10605;52.968;8.844;2023-02-15T13:28:17;11.60;99.90
20891;DHT22;10605;52.968;8.844;2023-02-15T13:30:50;11.70;99.90
20891;DHT22;10605;52.968;8.844;2023-02-15T13:33:36;11.50;99.90
20891;DHT22;10605;52.968;8.844;2023-02-15T13:41:56;11.40;99.90
20891;DHT22;10605;52.968;8.844;2023-02-15T13:47:37;11.40;99.90
20891;DHT22;10605;52.968;8.844;2023-02-15T13:52:57;11.40;99.90
20891;DHT22;10605;52.968;8.844;2023-02-15T13:55:29;11.40;99.90
20891;DHT22;10605;52.968;8.844;2023-02-15T14:09:27;11.90;99.90
20891;DHT22;10605;52.968;8.844;2023-02-15T14:17:28;11.50;99.90
20891;DHT22;10605;52.968;8.844;2023-02-15T14:20:24;11.50;99.90
20891;DHT22;10605;52.968;8.844;2023-02-15T14:23:20;11.70;99.90
20891;DHT22;10605;52.968;8.844;2023-02-15T14:31:47;11.20;99.90
20891;DHT22;10605;52.968;8.844;2023-02-15T14:45:42;11.20;99.90
20891;DHT22;10605;52.968;8.844;2023-02-15T14:48:25;11.20;99.90
20891;DHT22;10605;52.968;8.844;2023-02-15T14:50:55;11.00;99.90
20891;DHT22;10605;52.968;8.844;2023-02-15T14:56:15;10.90;99.90
20891;DHT22;10605;52.968;8.844;2023-02-15T15:01:28;10.80;99.90
20891;DHT22;10605;52.968;8.844;2023-02-15T15:04:07;10.80;99.90
20891;DHT22;10605;52.968;8.844;2023-02-15T15:06:39;10.60;99.90
20891;DHT22;10605;52.968;8.844;2023-02-15T15:09:26;10.60;99.90
20891;DHT22;10605;52.968;8.844;2023-02-15T15:12:13;10.60;99.90
20891;DHT22;10605;52.968;8.844;2023-02-15T15:14:43;10.60;99.90
20891;DHT22;10605;52.968;8.844;2023-02-15T15:22:50;10.50;99.90
20891;DHT22;10605;52.968;8.844;2023-02-15T15:25:57;10.40;99.90
20891;DHT22;10605;52.968;8.844;2023-02-15T15:40:31;10.00;99.90
20891;DHT22;10605;52.968;8.844;2023-02-15T15:46:05;9.80;99.90
20891;DHT22;10605;52.968;8.844;2023-02-15T15:48:35;9.70;99.90
20891;DHT22;10605;52.968;8.844;2023-02-15T15:51:16;9.70;99.90
20891;DHT22;10605;52.968;8.844;2023-02-15T15:53:48;9.60;99.90
20891;DHT22;10605;52.968;8.844;2023-02-15T15:56:37;9.60;99.90
20891;DHT22;10605;52.968;8.844;2023-02-15T15:59:07;9.40;99.90
20891;DHT22;10605;52.968;8.844;2023-02-15T16:02:11;9.40;99.90
20891;DHT22;10605;52.968;8.844;2023-02-15T16:04:38;9.20;99.90
20891;DHT22;10605;52.968;8.844;2023-02-15T16:10:00;8.80;99.90
20891;DHT22;10605;52.968;8.844;2023-02-15T16:12:33;8.70;99.90
20891;DHT22;10605;52.968;8.844;2023-02-15T16:15:14;8.60;99.90
20891;DHT22;10605;52.968;8.844;2023-02-15T16:17:45;8.50;99.90
20891;DHT22;10605;52.968;8.844;2023-02-15T16:20:20;8.40;99.90
20891;DHT22;10605;52.968;8.844;2023-02-15T16:22:49;8.20;99.90
20891;DHT22;10605;52.968;8.844;2023-02-15T16:28:06;7.80;99.90
20891;DHT22;10605;52.968;8.844;2023-02-15T16:30:36;7.70;99.90
20891;DHT22;10605;52.968;8.844;2023-02-15T16:33:13;7.60;99.90
20891;DHT22;10605;52.968;8.844;2023-02-15T16:39:06;7.40;99.90
20891;DHT22;10605;52.968;8.844;2023-02-15T16:41:15;7.20;99.90
20891;DHT22;10605;52.968;8.844;2023-02-15T16:43:47;7.20;99.90
20891;DHT22;10605;52.968;8.844;2023-02-15T16:46:27;7.20;99.90
20891;DHT22;10605;52.968;8.844;2023-02-15T16:48:56;7.30;99.90
20891;DHT22;10605;52.968;8.844;2023-02-15T16:51:32;7.30;99.90
20891;DHT22;10605;52.968;8.844;2023-02-15T16:54:05;7.20;99.90
20891;DHT22;10605;52.968;8.844;2023-02-15T16:56:33;7.30;99.90
20891;DHT22;10605;52.968;8.844;2023-02-15T16:59:05;7.20;99.90
20891;DHT22;10605;52.968;8.844;2023-02-15T17:01:32;7.20;99.90
20891;DHT22;10605;52.968;8.844;2023-02-15T17:06:41;7.10;99.90
20891;DHT22;10605;52.968;8.844;2023-02-15T17:09:24;7.00;99.90
20891;DHT22;10605;52.968;8.844;2023-02-15T17:11:51;6.90;99.90
20891;DHT22;10605;52.968;8.844;2023-02-15T17:14:30;6.90;99.90
20891;DHT22;10605;52.968;8.844;2023-02-15T17:16:59;6.90;99.90
20891;DHT22;10605;52.968;8.844;2023-02-15T17:19:29;6.80;99.90
20891;DHT22;10605;52.968;8.844;2023-02-15T17:22:04;6.70;99.90
20891;DHT22;10605;52.968;8.844;2023-02-15T17:24:40;6.50;99.90
20891;DHT22;10605;52.968;8.844;2023-02-15T17:27:25;6.40;99.90
20891;DHT22;10605;52.968;8.844;2023-02-15T17:29:57;6.40;99.90
20891;DHT22;10605;52.968;8.844;2023-02-15T17:32:27;6.20;99.90
20891;DHT22;10605;52.968;8.844;2023-02-15T17:40:23;6.00;99.90
20891;DHT22;10605;52.968;8.844;2023-02-15T17:42:52;5.80;99.90
20891;DHT22;10605;52.968;8.844;2023-02-15T17:45:18;5.70;99.90
20891;DHT22;10605;52.968;8.844;2023-02-15T17:47:47;5.60;99.90
20891;DHT22;10605;52.968;8.844;2023-02-15T17:50:29;5.60;99.90
20891;DHT22;10605;52.968;8.844;2023-02-15T17:52:58;5.60;99.90
20891;DHT22;10605;52.968;8.844;2023-02-15T17:55:26;5.50;99.90
20891;DHT22;10605;52.968;8.844;2023-02-15T17:58:11;5.50;99.90
20891;DHT22;10605;52.968;8.844;2023-02-15T18:00:46;5.50;99.90
20891;DHT22;10605;52.968;8.844;2023-02-15T18:03:39;5.50;99.90
20891;DHT22;10605;52.968;8.844;2023-02-15T18:06:24;5.50;99.90
20891;DHT22;10605;52.968;8.844;2023-02-15T18:09:13;5.50;99.90
20891;DHT22;10605;52.968;8.844;2023-02-15T18:11:58;5.60;99.90
20891;DHT22;10605;52.968;8.844;2023-02-15T18:14:24;5.60;99.90
20891;DHT22;10605;52.968;8.844;2023-02-15T18:16:50;5.60;99.90
20891;DHT22;10605;52.968;8.844;2023-02-15T18:19:22;5.50;99.90
20891;DHT22;10605;52.968;8.844;2023-02-15T18:21:49;5.40;99.90
20891;DHT22;10605;52.968;8.844;2023-02-15T18:24:23;5.40;99.90
20891;DHT22;10605;52.968;8.844;2023-02-15T18:26:49;5.40;99.90
20891;DHT22;10605;52.968;8.844;2023-02-15T18:29:16;5.30;99.90
20891;DHT22;10605;52.968;8.844;2023-02-15T18:31:43;5.20;99.90
20891;DHT22;10605;52.968;8.844;2023-02-15T18:34:27;5.30;99.90
20891;DHT22;10605;52.968;8.844;2023-02-15T18:36:59;5.20;99.90
20891;DHT22;10605;52.968;8.844;2023-02-15T18:39:39;5.20;99.90
20891;DHT22;10605;52.968;8.844;2023-02-15T18:42:22;5.30;99.90
20891;DHT22;10605;52.968;8.844;2023-02-15T18:44:54;5.30;99.90
20891;DHT22;10605;52.968;8.844;2023-02-15T18:47:21;5.40;99.90
20891;DHT22;10605;52.968;8.844;2023-02-15T18:49:50;5.40;99.90
20891;DHT22;10605;52.968;8.844;2023-02-15T18:52:21;5.30;99.90
20891;DHT22;10605;52.968;8.844;2023-02-15T18:54:58;5.30;99.90
20891;DHT22;10605;52.968;8.844;2023-02-15T18:57:27;5.40;99.90
20891;DHT22;10605;52.968;8.844;2023-02-15T18:59:53;5.30;99.90
20891;DHT22;10605;52.968;8.844;2023-02-15T19:02:22;5.30;99.90
20891;DHT22;10605;52.968;8.844;2023-02-15T19:04:48;5.30;99.90
20891;DHT22;10605;52.968;8.844;2023-02-15T19:07:29;5.20;99.90
20891;DHT22;10605;52.968;8.844;2023-02-15T19:09:59;5.20;99.90
20891;DHT22;10605;52.968;8.844;2023-02-15T19:12:27;5.10;99.90
20891;DHT22;10605;52.968;8.844;2023-02-15T19:14:53;5.10;99.90
20891;DHT22;10605;52.968;8.844;2023-02-15T19:17:26;5.10;99.90
20891;DHT22;10605;52.968;8.844;2023-02-15T19:19:53;5.00;99.90
20891;DHT22;10605;52.968;8.844;2023-02-15T19:22:30;4.90;99.90
20891;DHT22;10605;52.968;8.844;2023-02-15T19:25:00;4.90;99.90
20891;DHT22;10605;52.968;8.844;2023-02-15T19:29:59;4.80;99.90
20891;DHT22;10605;52.968;8.844;2023-02-15T19:32:25;4.80;99.90
20891;DHT22;10605;52.968;8.844;2023-02-15T19:34:52;4.70;99.90
20891;DHT22;10605;52.968;8.844;2023-02-15T19:37:26;4.60;99.90
20891;DHT22;10605;52.968;8.844;2023-02-15T19:39:56;4.60;99.90
20891;DHT22;10605;52.968;8.844;2023-02-15T19:42:30;4.50;99.90
20891;DHT22;10605;52.968;8.844;2023-02-15T19:44:57;4.40;99.90
20891;DHT22;10605;52.968;8.844;2023-02-15T19:47:28;4.40;99.90
20891;DHT22;10605;52.968;8.844;2023-02-15T19:49:54;4.30;99.90
20891;DHT22;10605;52.968;8.844;2023-02-15T19:52:25;4.40;99.90
20891;DHT22;10605;52.968;8.844;2023-02-15T19:54:53;4.30;99.90
20891;DHT22;10605;52.968;8.844;2023-02-15T19:57:19;4.20;99.90
20891;DHT22;10605;52.968;8.844;2023-02-15T19:59:48;4.10;99.90
20891;DHT22;10605;52.968;8.844;2023-02-15T20:02:17;4.10;99.90
20891;DHT22;10605;52.968;8.844;2023-02-15T20:04:45;4.10;99.90
20891;DHT22;10605;52.968;8.844;2023-02-15T20:07:25;4.00;99.90
20891;DHT22;10605;52.968;8.844;2023-02-15T20:09:51;4.00;99.90
20891;DHT22;10605;52.968;8.844;2023-02-15T20:12:23;4.00;99.90
20891;DHT22;10605;52.968;8.844;2023-02-15T20:14:50;4.00;99.90
20891;DHT22;10605;52.968;8.844;2023-02-15T20:17:24;3.90;99.90
20891;DHT22;10605;52.968;8.844;2023-02-15T20:19:52;3.90;99.90
20891;DHT22;10605;52.968;8.844;2023-02-15T20:22:23;3.90;99.90
20891;DHT22;10605;52.968;8.844;2023-02-15T20:24:50;3.90;99.90
20891;DHT22;10605;52.968;8.844;2023-02-15T20:27:20;3.90;99.90
20891;DHT22;10605;52.968;8.844;2023-02-15T20:29:45;3.80;99.90
20891;DHT22;10605;52.968;8.844;2023-02-15T20:32:11;3.80;99.90
20891;DHT22;10605;52.968;8.844;2023-02-15T20:34:37;3.80;99.90
20891;DHT22;10605;52.968;8.844;2023-02-15T20:37:23;3.80;99.90
20891;DHT22;10605;52.968;8.844;2023-02-15T20:39:53;3.80;99.90
20891;DHT22;10605;52.968;8.844;2023-02-15T20:42:19;3.70;99.90
20891;DHT22;10605;52.968;8.844;2023-02-15T20:44:45;3.70;99.90
20891;DHT22;10605;52.968;8.844;2023-02-15T20:47:11;3.70;99.90
20891;DHT22;10605;52.968;8.844;2023-02-15T20:49:37;3.70;99.90
20891;DHT22;10605;52.968;8.844;2023-02-15T20:52:11;3.70;99.90
20891;DHT22;10605;52.968;8.844;2023-02-15T20:54:42;3.70;99.90
20891;DHT22;10605;52.968;8.844;2023-02-15T20:57:11;3.60;99.90
20891;DHT22;10605;52.968;8.844;2023-02-15T20:59:37;3.70;99.90
20891;DHT22;10605;52.968;8.844;2023-02-15T21:02:13;3.70;99.90
20891;DHT22;10605;52.968;8.844;2023-02-15T21:04:40;3.70;99.90
20891;DHT22;10605;52.968;8.844;2023-02-15T21:07:09;3.70;99.90
20891;DHT22;10605;52.968;8.844;2023-02-15T21:09:39;3.60;99.90
20891;DHT22;10605;52.968;8.844;2023-02-15T21:12:12;3.60;99.90
20891;DHT22;10605;52.968;8.844;2023-02-15T21:14:40;3.50;99.90
20891;DHT22;10605;52.968;8.844;2023-02-15T21:17:08;3.50;99.90
20891;DHT22;10605;52.968;8.844;2023-02-15T21:19:36;3.50;99.90
20891;DHT22;10605;52.968;8.844;2023-02-15T21:22:03;3.50;99.90
20891;DHT22;10605;52.968;8.844;2023-02-15T21:24:29;3.50;99.90
20891;DHT22;10605;52.968;8.844;2023-02-15T21:26:59;3.50;99.90
20891;DHT22;10605;52.968;8.844;2023-02-15T21:29:27;3.50;99.90
20891;DHT22;10605;52.968;8.844;2023-02-15T21:31:56;3.40;99.90
20891;DHT22;10605;52.968;8.844;2023-02-15T21:34:25;3.30;99.90
20891;DHT22;10605;52.968;8.844;2023-02-15T21:36:50;3.30;99.90
20891;DHT22;10605;52.968;8.844;2023-02-15T21:39:22;3.10;99.90
20891;DHT22;10605;52.968;8.844;2023-02-15T21:41:50;3.10;99.90
20891;DHT22;10605;52.968;8.844;2023-02-15T21:44:37;3.20;99.90
20891;DHT22;10605;52.968;8.844;2023-02-15T21:47:25;3.20;99.90
20891;DHT22;10605;52.968;8.844;2023-02-15T21:50:12;3.30;99.90
20891;DHT22;10605;52.968;8.844;2023-02-15T21:52:57;3.30;99.90
20891;DHT22;10605;52.968;8.844;2023-02-15T21:55:23;3.20;99.90
20891;DHT22;10605;52.968;8.844;2023-02-15T21:57:49;3.10;99.90
20891;DHT22;10605;52.968;8.844;2023-02-15T22:00:21;3.10;99.90
20891;DHT22;10605;52.968;8.844;2023-02-15T22:02:50;3.10;99.90
20891;DHT22;10605;52.968;8.844;2023-02-15T22:05:19;3.10;99.90
20891;DHT22;10605;52.968;8.844;2023-02-15T22:07:48;3.20;99.90
20891;DHT22;10605;52.968;8.844;2023-02-15T22:10:14;3.30;99.90
20891;DHT22;10605;52.968;8.844;2023-02-15T22:12:46;3.10;99.90
20891;DHT22;10605;52.968;8.844;2023-02-15T22:15:25;3.00;99.90
20891;DHT22;10605;52.968;8.844;2023-02-15T22:17:53;2.90;99.90
20891;DHT22;10605;52.968;8.844;2023-02-15T22:20:21;2.80;99.90
20891;DHT22;10605;52.968;8.844;2023-02-15T22:22:48;2.90;99.90
20891;DHT22;10605;52.968;8.844;2023-02-15T22:25:22;2.90;99.90
20891;DHT22;10605;52.968;8.844;2023-02-15T22:27:50;2.90;99.90
20891;DHT22;10605;52.968;8.844;2023-02-15T22:30:32;2.90;99.90
20891;DHT22;10605;52.968;8.844;2023-02-15T22:33:01;3.00;99.90
20891;DHT22;10605;52.968;8.844;2023-02-15T22:35:29;3.00;99.90
20891;DHT22;10605;52.968;8.844;2023-02-15T22:37:57;3.10;99.90
20891;DHT22;10605;52.968;8.844;2023-02-15T22:40:31;3.20;99.90
20891;DHT22;10605;52.968;8.844;2023-02-15T22:43:02;3.10;99.90
20891;DHT22;10605;52.968;8.844;2023-02-15T22:45:28;3.20;99.90
20891;DHT22;10605;52.968;8.844;2023-02-15T22:48:02;3.30;99.90
20891;DHT22;10605;52.968;8.844;2023-02-15T22:50:40;3.30;99.90
20891;DHT22;10605;52.968;8.844;2023-02-15T22:53:08;3.40;99.90
20891;DHT22;10605;52.968;8.844;2023-02-15T22:55:35;3.40;99.90
20891;DHT22;10605;52.968;8.844;2023-02-15T22:58:03;3.50;99.90
20891;DHT22;10605;52.968;8.844;2023-02-15T23:00:33;3.50;99.90
20891;DHT22;10605;52.968;8.844;2023-02-15T23:03:00;3.50;99.90
20891;DHT22;10605;52.968;8.844;2023-02-15T23:05:32;3.50;99.90
20891;DHT22;10605;52.968;8.844;2023-02-15T23:07:58;3.50;99.90
20891;DHT22;10605;52.968;8.844;2023-02-15T23:10:30;3.50;99.90
20891;DHT22;10605;52.968;8.844;2023-02-15T23:13:00;3.50;99.90
20891;DHT22;10605;52.968;8.844;2023-02-15T23:15:47;3.70;99.90
20891;DHT22;10605;52.968;8.844;2023-02-15T23:18:33;3.70;99.90
20891;DHT22;10605;52.968;8.844;2023-02-15T23:21:05;3.70;99.90
20891;DHT22;10605;52.968;8.844;2023-02-15T23:23:37;3.70;99.90
20891;DHT22;10605;52.968;8.844;2023-02-15T23:26:06;3.60;99.90
20891;DHT22;10605;52.968;8.844;2023-02-15T23:28:37;3.60;99.90
20891;DHT22;10605;52.968;8.844;2023-02-15T23:31:13;3.50;99.90
20891;DHT22;10605;52.968;8.844;2023-02-15T23:33:42;3.60;99.90
20891;DHT22;10605;52.968;8.844;2023-02-15T23:38:49;3.50;99.90
20891;DHT22;10605;52.968;8.844;2023-02-15T23:41:19;3.40;99.90